Latest Coastal Weather Observations for Townsville

IDQ60701

Issued at 8:51 pm EST Tuesday 25 July 2017 (issued every 10 minutes, with the page automatically refreshed every 10 minutes)

About coastal observations | Map of coastal stations | Coastal observations for QLD | Marine services | Other Formats
Station Details ID: 032040 Name: TOWNSVILLE AERO Lat: -19.25 Lon: 146.77 Height: 4.34 m
Data from the previous 72 hours. | See also: Recent months at Townsville
Date/Time
EST
Temp
°C
Wind Pressure Rain since
9am
mm
Weather Cloud Vis
km
Sea
Height
m
Swell
Dir  Spd
kts
Gust
kts
hPa Trend Height
m
Period
s
Dir
25/08:30pm 20.8 SE 7 10 1020.2 - 0.0 - - 10 - - - -
25/08:00pm 21.0 ESE 8 14 1019.9 - 0.0 - - 10 - - - -
25/07:30pm 21.2 ESE 8 12 1019.6 - 0.0 - Partly cloudy 10 - - - -
25/07:00pm 21.2 ESE 7 9 1019.4 - 0.0 - - 10 - - - -
25/06:30pm 21.4 ESE 7 8 1019.2 - 0.0 - - 10 - - - -
25/06:00pm 22.1 E 12 16 1018.8 R 0.0 - Mostly cloudy 10 - - - -
25/05:30pm 22.5 ENE 12 16 1018.6 - 0.0 - Mostly clear 10 - - - -
25/05:00pm 23.0 ENE 14 17 1018.4 - 0.0 - Mostly clear 10 - - - -
25/04:30pm 24.1 ENE 15 18 1018.2 - 0.0 - Mostly clear 10 - - - -
25/04:00pm 24.3 ENE 15 18 1018.1 - 0.0 - Mostly clear 10 - - - -
25/03:30pm 24.4 ENE 15 18 1018.1 - 0.0 - Mostly clear 10 - - - -
25/03:00pm 24.9 ENE 16 19 1017.9 R 0.0 - Mostly clear 10 - - - -
25/02:30pm 24.9 ENE 15 19 1018.0 - 0.0 - Mostly clear 10 - - - -
25/02:00pm 25.6 E 14 19 1018.2 - 0.0 - Mostly clear 10 - - - -
25/01:30pm 26.0 E 17 19 1018.4 - 0.0 - Mostly clear 10 - - - -
25/01:00pm 25.7 ENE 14 17 1018.7 - 0.0 - Mostly clear 10 - - - -
25/12:30pm 26.3 ENE 15 18 1019.1 - 0.0 - Mostly clear 10 - - - -
25/12:00pm 26.1 ENE 14 17 1019.6 F 0.0 - Mostly clear 10 - - - -
25/11:30am 25.9 ESE 10 14 1020.1 - 0.0 - Mostly clear 10 - - - -
25/11:00am 24.8 ESE 11 14 1020.6 - 0.0 - Mostly clear 10 - - - -
25/10:30am 24.5 SSE 9 13 1021.0 - 0.0 - Mostly clear 10 - - - -
25/10:00am 24.1 SE 11 16 1021.2 - 0.0 - Mostly clear 10 - - - -
25/09:30am 23.1 S 10 15 1021.4 - 0.0 - Mostly clear 10 - - - -
25/09:00am 22.1 SSE 5 6 1021.7 R 0.0 - Partly cloudy 10 - - - -
25/08:30am 20.3 SSW 6 8 1021.5 - 0.0 - Mostly clear 10 - - - -
25/08:00am 19.1 SSW 4 6 1021.0 - 0.0 - Mostly clear 10 - - - -
25/07:30am 17.4 CALM 0 0 1020.9 - 0.0 - Mostly clear 10 - - - -
25/07:00am 15.8 CALM 0 0 1020.6 - 0.0 - Mostly clear 10 - - - -
25/06:30am 16.3 CALM 0 5 1020.4 - 0.0 - Mostly clear 10 - - - -
25/06:00am 16.2 CALM 0 3 1020.0 R 0.0 - Partly cloudy 10 - - - -
25/05:30am 16.1 CALM 0 0 1019.8 - 0.0 - Partly cloudy 10 - - - -
25/05:00am 15.5 CALM 0 0 1019.6 - 0.0 - Partly cloudy 10 - - - -
25/04:30am 15.6 WNW 3 5 1019.4 - 0.0 - - 10 - - - -
25/04:00am 17.2 SE 6 7 1019.2 - 0.0 - - 10 - - - -
25/03:30am 17.5 SSE 6 7 1019.2 - 0.0 - - 10 - - - -
25/03:00am 18.6 SE 8 9 1019.2 R 0.0 - - 10 - - - -
25/02:30am 18.7 SE 8 9 1019.3 - 0.0 - - 10 - - - -
25/02:00am 19.0 SE 8 9 1019.4 - 0.0 - - 10 - - - -
25/01:30am 18.9 SE 7 8 1019.6 - 0.0 - - 10 - - - -
25/01:00am 19.1 SE 7 8 1019.7 - 0.0 - - 10 - - - -
25/12:30am 19.6 SE 8 9 1019.8 - 0.0 - Partly cloudy 10 - - - -
25/12:00am 19.6 SE 8 9 1019.9 R 0.0 - Mostly clear 10 - - - -
 
Date/Time
EST
Temp
°C
Wind Pressure Rain since
9am
mm
Weather Cloud Vis
km
Sea
Height
m
Swell
Dir  Spd
kts
Gust
kts
hPa Trend Height
m
Period
s
Dir
24/11:30pm 20.7 SE 8 10 1019.9 - 0.0 - - 10 - - - -
24/11:00pm 20.9 SE 8 11 1019.9 - 0.0 - Partly cloudy 10 - - - -
24/10:30pm 21.1 SE 8 10 1019.8 - 0.0 - Cloudy 10 - - - -
24/10:00pm 20.5 SE 7 9 1019.9 - 0.0 - - 10 - - - -
24/09:30pm 20.7 SE 7 9 1019.7 - 0.0 - - 10 - - - -
24/09:00pm 21.3 ESE 8 11 1019.6 S 0.0 - Mostly clear 10 - - - -
24/08:30pm 21.6 ESE 9 15 1019.4 - 0.0 - - 10 - - - -
24/08:00pm 21.8 ESE 11 15 1019.0 - 0.0 - - 10 - - - -
24/07:30pm 22.1 E 8 10 1018.7 - 0.0 - Partly cloudy 10 - - - -
24/07:00pm 22.4 E 10 14 1018.5 - 0.0 - Cloudy 10 - - - -
24/06:30pm 22.5 E 11 16 1018.2 - 0.0 - Cloudy 10 - - - -
24/06:00pm 22.5 E 9 14 1018.0 R 0.0 - - 10 - - - -
24/05:30pm 23.1 E 9 12 1017.7 - 0.0 - Mostly clear 10 - - - -
24/05:00pm 23.6 E 12 17 1017.3 - 0.0 - Mostly clear 10 - - - -
24/04:30pm 24.6 E 13 16 1017.2 - 0.0 - Mostly clear 10 - - - -
24/04:00pm 24.2 ENE 13 17 1017.0 - 0.0 - Mostly clear 10 - - - -
24/03:30pm 24.4 ENE 15 19 1016.9 - 0.0 - Mostly clear 10 - - - -
24/03:00pm 24.5 ENE 15 18 1017.0 R 0.0 - Mostly clear 10 - - - -
24/02:30pm 26.2 ENE 13 17 1016.9 - 0.0 - Mostly clear 10 - - - -
24/02:00pm 25.1 ENE 11 15 1017.3 - 0.0 - Mostly clear 10 - - - -
24/01:30pm 26.7 ENE 11 15 1017.7 - 0.0 - Mostly clear 10 - - - -
24/01:00pm 26.2 NE 13 16 1018.1 - 0.0 - Mostly clear 10 - - - -
24/12:30pm 25.2 NE 12 15 1018.6 - 0.0 - Mostly clear 10 - - - -
24/12:00pm 25.8 E 9 15 1019.1 F 0.0 - Mostly clear 10 - - - -
24/11:30am 25.0 SE 6 8 1019.7 - 0.0 - Partly cloudy 10 - - - -
24/11:00am 24.0 E 7 11 1020.1 - 0.0 - Partly cloudy 10 - - - -
24/10:30am 23.9 SE 7 10 1020.4 - 0.0 - Mostly clear 10 - - - -
24/10:00am 23.1 SSE 8 10 1020.6 - 0.0 - Mostly clear 10 - - - -
24/09:30am 22.0 SE 5 7 1020.7 - 0.0 - - 10 - - - -
24/09:00am 21.5 SSE 1 4 1020.8 R 0.0 - - 10 - - - -
24/08:30am 19.7 CALM 0 0 1020.4 - 0.0 - Mostly clear 10 - - - -
24/08:00am 17.9 CALM 0 4 1020.3 - 0.0 - Mostly clear 10 - - - -
24/07:30am 15.9 W 3 4 1020.0 - 0.0 - Mostly clear 10 - - - -
24/07:00am 14.4 CALM 0 0 1019.6 - 0.0 - Mostly clear 10 - - - -
24/06:30am 14.2 CALM 0 0 1019.4 - 0.0 Shallow fog Mostly clear 10 - - - -
24/06:00am 14.7 CALM 0 0 1019.0 R 0.0 - Mostly clear 10 - - - -
24/05:30am 14.7 CALM 0 0 1018.7 - 0.0 - Partly cloudy 10 - - - -
24/05:00am 14.7 CALM 0 0 1018.4 - 0.0 - Partly cloudy 10 - - - -
24/04:30am 14.7 CALM 0 0 1018.1 - 0.0 - Partly cloudy 10 - - - -
24/04:00am 14.9 CALM 0 0 1018.0 - 0.0 - Partly cloudy 10 - - - -
24/03:30am 15.1 W 2 4 1018.0 - 0.0 - - 10 - - - -
24/03:00am 15.8 CALM 0 0 1018.1 R 0.0 - Mostly clear 10 - - - -
24/02:30am 15.9 CALM 0 0 1018.2 - 0.0 - Partly cloudy 10 - - - -
24/02:00am 16.0 CALM 0 0 1018.3 - 0.0 - - 10 - - - -
24/01:30am 16.1 CALM 0 0 1018.4 - 0.0 - - 10 - - - -
24/01:00am 16.1 W 4 5 1018.6 - 0.0 - - 10 - - - -
24/12:30am 16.3 W 4 5 1018.7 - 0.0 - - 10 - - - -
24/12:00am 16.0 SSE 4 4 1018.9 R 0.0 - - 10 - - - -
 
Date/Time
EST
Temp
°C
Wind Pressure Rain since
9am
mm
Weather Cloud Vis
km
Sea
Height
m
Swell
Dir  Spd
kts
Gust
kts
hPa Trend Height
m
Period
s
Dir
23/11:30pm 16.6 SE 3 5 1019.0 - 0.0 - - 10 - - - -
23/11:00pm 19.1 SE 5 6 1019.0 - 0.0 - - 10 - - - -
23/10:30pm 19.2 SSE 6 7 1018.9 - 0.0 - - 10 - - - -
23/10:00pm 19.5 SE 6 8 1018.9 - 0.0 - - 10 - - - -
23/09:30pm 19.4 SE 6 7 1018.9 - 0.0 - - 10 - - - -
23/09:00pm 19.5 SE 6 7 1018.8 R 0.0 - - 10 - - - -
23/08:30pm 19.9 SE 6 7 1018.6 - 0.0 - - 10 - - - -
23/08:00pm 20.2 SE 6 7 1018.2 - 0.0 - - 10 - - - -
23/07:30pm 20.5 E 5 6 1018.0 - 0.0 - - 10 - - - -
23/07:00pm 21.0 E 8 10 1017.6 - 0.0 - - 10 - - - -
23/06:30pm 21.2 ENE 8 11 1017.2 - 0.0 - - 10 - - - -
23/06:00pm 21.6 ENE 9 11 1017.1 F 0.0 - - 10 - - - -
23/05:30pm 22.3 ENE 10 13 1016.8 - 0.0 - - 10 - - - -
23/05:00pm 23.1 ENE 12 14 1016.6 - 0.0 - - 10 - - - -
23/04:30pm 23.4 ENE 12 15 1016.4 - 0.0 - - 10 - - - -
23/04:00pm 24.2 ENE 12 15 1016.3 - 0.0 - - 10 - - - -
23/03:30pm 24.7 NE 12 15 1016.4 - 0.0 - - 10 - - - -
23/03:00pm 25.0 NE 10 13 1016.5 F 0.0 - - 10 - - - -
23/02:30pm 24.6 NE 10 14 1016.6 - 0.0 - - 10 - - - -
23/02:00pm 25.1 NE 10 14 1017.0 - 0.0 - - 10 - - - -
23/01:30pm 25.0 NE 9 13 1017.5 - 0.0 - - 10 - - - -
23/01:00pm 24.8 ENE 10 13 1017.9 - 0.0 - - 10 - - - -
23/12:30pm 24.6 ENE 10 14 1018.4 - 0.0 - - 10 - - - -
23/12:00pm 24.7 NE 9 14 1018.9 F 0.0 - Mostly clear 10 - - - -
23/11:30am 24.4 NE 9 14 1019.4 - 0.0 - Mostly clear 10 - - - -
23/11:00am 24.7 ENE 10 12 1019.7 - 0.0 - Mostly clear 10 - - - -
23/10:30am 23.8 SE 6 9 1020.0 - 0.0 - Mostly clear 10 - - - -
23/10:00am 23.0 SSE 7 9 1020.3 - 0.0 - Mostly clear 10 - - - -
23/09:30am 21.8 SSE 6 8 1020.4 - 0.0 - Mostly clear 10 - - - -
23/09:00am 20.8 SE 4 5 1020.5 R 0.0 - Mostly clear 10 - - - -
23/08:30am 19.2 CALM 0 0 1020.1 - 0.0 - Mostly clear 10 - - - -
23/08:00am 17.2 CALM 0 0 1019.8 - 0.0 - Mostly clear 10 - - - -
23/07:30am 14.7 CALM 0 0 1019.5 - 0.0 - Mostly clear 10 - - - -
23/07:00am 13.7 CALM 0 0 1019.2 - 0.0 - Mostly clear 10 - - - -
23/06:30am 13.8 CALM 0 0 1018.9 - 0.0 Shallow fog Mostly clear 10 - - - -
23/06:00am 13.7 CALM 0 0 1018.6 F 0.0 - Mostly clear 10 - - - -
23/05:30am 14.6 CALM 0 0 1018.5 - 0.0 - - 10 - - - -
23/05:00am 14.8 CALM 0 0 1018.4 - 0.0 - - 10 - - - -
23/04:30am 14.4 CALM 0 0 1018.3 - 0.0 - Partly cloudy 10 - - - -
23/04:00am 14.2 CALM 0 0 1018.4 - 0.0 - Partly cloudy 10 - - - -
23/03:30am 14.3 CALM 0 0 1018.5 - 0.0 - Partly cloudy 10 - - - -
23/03:00am 15.6 SW 4 5 1018.6 R 0.0 - Mostly clear 10 - - - -
23/02:30am 15.7 W 4 5 1018.8 - 0.0 - Partly cloudy 10 - - - -
23/02:00am 15.3 CALM 0 0 1018.9 - 0.0 - Partly cloudy 10 - - - -
23/01:30am 17.5 SE 7 8 1019.0 - 0.0 - Partly cloudy 10 - - - -
23/01:00am 17.3 SSE 6 7 1019.2 - 0.0 - Partly cloudy 10 - - - -
23/12:30am 17.6 SE 6 6 1019.4 - 0.0 - - 10 - - - -
23/12:00am 17.1 SE 6 7 1019.4 F 0.0 - - 10 - - - -
 
Date/Time
EST
Temp
°C
Wind Pressure Rain since
9am
mm
Weather Cloud Vis
km
Sea
Height
m
Swell
Dir  Spd
kts
Gust
kts
hPa Trend Height
m
Period
s
Dir
22/11:30pm 17.7 SE 7 8 1019.6 - 0.0 - - 10 - - - -
22/11:00pm 18.0 SSE 7 8 1019.9 - 0.0 - - 10 - - - -
22/10:30pm 18.0 SSE 7 7 1020.0 - 0.0 - - 10 - - - -
22/10:00pm 17.9 SE 6 8 1020.0 - 0.0 - - 10 - - - -
22/09:30pm 18.3 SE 6 8 1019.9 - 0.0 - - 10 - - - -
22/09:00pm 18.5 SE 7 8 1019.8 R 0.0 - - 10 - - - -

Other Formats:

Comma delimited format used in spreadsheet applications
http://www.bom.gov.au/fwo/IDQ60701/IDQ60701.94294.axf

JavaScript Object Notation format (JSON) in row-major order
http://www.bom.gov.au/fwo/IDQ60701/IDQ60701.94294.json